createdAt,value
2023-02-03T00:00:01.629Z,50.32
2023-02-03T00:02:40.022Z,50.51
2023-02-03T00:05:08.765Z,50.30
2023-02-03T00:07:38.733Z,50.24
2023-02-03T00:10:07.806Z,50.18
2023-02-03T00:12:35.687Z,50.27
2023-02-03T00:15:04.147Z,50.29
2023-02-03T00:17:31.909Z,50.44
2023-02-03T00:19:59.739Z,50.14
2023-02-03T00:22:27.343Z,50.45
2023-02-03T00:24:55.525Z,50.26
2023-02-03T00:27:23.355Z,50.28
2023-02-03T00:29:51.156Z,50.31
2023-02-03T00:32:19.281Z,50.61
2023-02-03T00:34:47.704Z,50.50
2023-02-03T00:37:15.907Z,50.78
2023-02-03T00:39:43.752Z,50.80
2023-02-03T00:42:11.570Z,50.74
2023-02-03T00:44:39.452Z,50.81
2023-02-03T00:47:07.542Z,50.76
2023-02-03T00:49:35.341Z,50.84
2023-02-03T00:52:03.061Z,50.89
2023-02-03T00:54:32.689Z,50.62
2023-02-03T00:57:01.463Z,51.00
2023-02-03T00:59:29.168Z,50.93
2023-02-03T01:01:56.916Z,50.72
2023-02-03T01:04:25.911Z,50.78
2023-02-03T01:06:57.472Z,50.92
2023-02-03T01:09:25.993Z,50.71
2023-02-03T01:11:55.465Z,50.82
2023-02-03T01:14:23.731Z,50.82
2023-02-03T01:16:51.742Z,51.02
2023-02-03T01:19:19.516Z,50.99
2023-02-03T01:21:47.752Z,51.12
2023-02-03T01:24:15.498Z,51.05
2023-02-03T01:26:43.367Z,51.16
2023-02-03T01:29:11.441Z,51.18
2023-02-03T01:31:42.300Z,51.11
2023-02-03T01:34:16.342Z,51.35
2023-02-03T01:36:46.796Z,51.53
2023-02-03T01:39:14.951Z,51.22
2023-02-03T01:41:42.767Z,51.08
2023-02-03T01:44:55.848Z,51.18
2023-02-03T01:47:49.574Z,51.32
2023-02-03T01:50:32.546Z,51.74
2023-02-03T01:53:06.799Z,51.54
2023-02-03T01:55:40.808Z,51.78
2023-02-03T01:58:26.954Z,51.52
2023-02-03T02:00:57.528Z,52.02
2023-02-03T02:03:40.285Z,51.48
2023-02-03T02:06:12.581Z,51.63
2023-02-03T02:08:47.389Z,51.89
2023-02-03T02:11:16.045Z,51.95
2023-02-03T02:13:45.439Z,52.02
2023-02-03T02:16:23.003Z,52.08
2023-02-03T02:19:14.826Z,52.19
2023-02-03T02:22:20.482Z,51.96
2023-02-03T02:24:53.807Z,52.53
2023-02-03T02:28:05.502Z,52.32
2023-02-03T02:30:48.385Z,52.21
2023-02-03T02:33:49.913Z,52.05
2023-02-03T02:36:43.290Z,52.38
2023-02-03T02:39:28.518Z,51.93
2023-02-03T02:42:06.212Z,51.93
2023-02-03T02:44:44.066Z,52.05
2023-02-03T02:47:20.249Z,52.10
2023-02-03T02:50:22.724Z,52.03
2023-02-03T02:53:11.866Z,52.27
2023-02-03T02:55:43.670Z,52.13
2023-02-03T02:58:16.520Z,52.17
2023-02-03T03:00:46.442Z,52.30
2023-02-03T03:03:24.129Z,52.17
2023-02-03T03:06:11.399Z,52.22
2023-02-03T03:09:15.287Z,52.30
2023-02-03T03:11:54.373Z,52.46
2023-02-03T03:14:26.792Z,52.21
2023-02-03T03:17:03.946Z,52.19
2023-02-03T03:19:39.498Z,52.30
2023-02-03T03:22:11.787Z,52.41
2023-02-03T03:24:50.304Z,52.14
2023-02-03T03:27:26.594Z,52.37
2023-02-03T03:30:00.467Z,52.26
2023-02-03T03:32:30.695Z,52.33
2023-02-03T03:35:00.253Z,52.57
2023-02-03T03:38:09.291Z,52.56
2023-02-03T03:40:49.791Z,52.42
2023-02-03T03:43:24.045Z,52.42
2023-02-03T03:45:58.475Z,52.63
2023-02-03T03:48:35.631Z,52.68
2023-02-03T03:51:19.175Z,52.34
2023-02-03T03:53:50.472Z,52.71
2023-02-03T03:56:24.221Z,52.87
2023-02-03T03:58:53.397Z,53.01
2023-02-03T04:01:23.748Z,52.82
2023-02-03T04:04:02.043Z,52.63
2023-02-03T04:06:29.865Z,53.06
2023-02-03T04:08:57.637Z,52.78
2023-02-03T04:11:45.000Z,52.78
2023-02-03T04:14:12.870Z,52.97
2023-02-03T04:16:40.841Z,52.87
2023-02-03T04:19:08.787Z,52.75
2023-02-03T04:21:36.680Z,52.85
2023-02-03T04:24:05.002Z,52.93
2023-02-03T04:26:32.818Z,53.17
2023-02-03T04:29:00.762Z,52.97
2023-02-03T04:31:28.604Z,53.14
2023-02-03T04:33:56.513Z,53.02
2023-02-03T04:36:24.328Z,53.09
2023-02-03T04:38:52.155Z,53.40
2023-02-03T04:41:19.978Z,53.66
2023-02-03T04:43:48.119Z,53.32
2023-02-03T04:46:16.080Z,53.59
2023-02-03T04:48:47.084Z,53.46
2023-02-03T04:51:14.973Z,53.62
2023-02-03T04:53:42.822Z,53.83
2023-02-03T04:56:10.607Z,53.73
2023-02-03T04:58:38.338Z,53.73
2023-02-03T05:01:09.262Z,53.61
2023-02-03T05:03:37.371Z,53.70
2023-02-03T05:06:05.817Z,53.89
2023-02-03T05:08:33.673Z,53.75
2023-02-03T05:11:02.384Z,54.08
2023-02-03T05:13:30.517Z,53.88
2023-02-03T05:15:58.232Z,53.60
2023-02-03T05:18:26.119Z,53.75
2023-02-03T05:20:53.982Z,53.93
2023-02-03T05:23:21.979Z,53.70
2023-02-03T05:25:50.152Z,53.57
2023-02-03T05:28:18.023Z,53.90
2023-02-03T05:30:45.765Z,53.82
2023-02-03T05:33:13.549Z,53.88
2023-02-03T05:35:41.275Z,54.11
2023-02-03T05:38:09.012Z,53.90
2023-02-03T05:40:55.425Z,53.98
2023-02-03T05:43:23.455Z,53.99
2023-02-03T05:45:51.276Z,53.94
2023-02-03T05:48:19.267Z,53.84
2023-02-03T05:50:47.062Z,54.07
2023-02-03T05:53:14.918Z,53.72
2023-02-03T05:55:42.801Z,54.11
2023-02-03T05:58:11.409Z,54.02
2023-02-03T06:00:39.337Z,53.83
2023-02-03T06:03:07.545Z,54.02
2023-02-03T06:05:37.809Z,53.85
2023-02-03T06:08:06.120Z,53.81
2023-02-03T06:10:34.043Z,53.81
2023-02-03T06:13:13.888Z,53.69
2023-02-03T06:15:42.673Z,53.78
2023-02-03T06:18:10.600Z,53.85
2023-02-03T06:20:38.397Z,53.68
2023-02-03T06:23:06.208Z,53.67
2023-02-03T06:25:34.266Z,53.60
2023-02-03T06:28:02.923Z,53.86
2023-02-03T06:30:31.195Z,53.95
2023-02-03T06:32:59.106Z,53.77
2023-02-03T06:35:27.071Z,53.84
2023-02-03T06:37:55.072Z,54.17
2023-02-03T06:40:23.242Z,54.43
2023-02-03T06:42:51.432Z,54.27
2023-02-03T06:45:19.424Z,54.36
2023-02-03T06:47:47.413Z,54.47
2023-02-03T06:50:16.167Z,54.63
2023-02-03T06:52:44.429Z,54.62
2023-02-03T06:55:12.196Z,54.56
2023-02-03T06:57:47.920Z,54.52
2023-02-03T07:00:26.073Z,54.56
2023-02-03T07:02:56.052Z,54.51
2023-02-03T07:05:25.643Z,54.74
2023-02-03T07:07:54.847Z,54.86
2023-02-03T07:10:22.566Z,54.49
2023-02-03T07:12:51.802Z,54.49
2023-02-03T07:15:20.012Z,54.62
2023-02-03T07:17:54.422Z,54.40
2023-02-03T07:20:24.611Z,54.60
2023-02-03T07:22:55.757Z,54.79
2023-02-03T07:25:24.734Z,54.95
2023-02-03T07:27:52.617Z,54.83
2023-02-03T07:30:21.082Z,55.08
2023-02-03T07:32:50.685Z,54.86
2023-02-03T07:35:19.619Z,54.76
2023-02-03T07:37:47.535Z,55.09
2023-02-03T07:40:20.375Z,55.17
2023-02-03T07:42:50.103Z,54.92
2023-02-03T07:45:19.243Z,55.00
2023-02-03T07:47:47.033Z,55.09
2023-02-03T07:50:16.985Z,54.95
2023-02-03T07:52:44.749Z,54.92
2023-02-03T07:55:12.534Z,54.97
2023-02-03T07:57:43.473Z,55.06
2023-02-03T08:00:15.657Z,54.95
2023-02-03T08:02:44.402Z,55.27
2023-02-03T08:05:12.747Z,55.05
2023-02-03T08:07:41.558Z,55.24
2023-02-03T08:10:12.245Z,55.32
2023-02-03T08:12:40.454Z,55.08
2023-02-03T08:15:09.251Z,55.17
2023-02-03T08:17:40.057Z,55.28
2023-02-03T08:20:12.009Z,55.19
2023-02-03T08:22:39.706Z,55.14
2023-02-03T08:25:09.241Z,55.08
2023-02-03T08:27:37.132Z,55.13
2023-02-03T08:30:09.652Z,55.07
2023-02-03T08:32:37.483Z,55.20
2023-02-03T08:35:05.856Z,55.09
2023-02-03T08:37:34.385Z,55.38
2023-02-03T08:40:02.407Z,55.29
2023-02-03T08:42:30.935Z,55.21
2023-02-03T08:44:59.060Z,55.43
2023-02-03T08:47:27.692Z,55.33
2023-02-03T08:49:55.599Z,55.33
2023-02-03T08:52:23.755Z,55.27
2023-02-03T08:54:51.696Z,55.36
2023-02-03T08:57:20.654Z,55.74
2023-02-03T08:59:48.883Z,55.47
2023-02-03T09:02:19.819Z,55.51
2023-02-03T09:04:49.181Z,55.45
2023-02-03T09:07:17.086Z,55.81
2023-02-03T09:09:45.181Z,55.53
2023-02-03T09:12:13.275Z,55.80
2023-02-03T09:14:41.299Z,55.60
2023-02-03T09:17:10.250Z,55.49
2023-02-03T09:19:38.401Z,56.00
2023-02-03T09:22:06.497Z,55.52
2023-02-03T09:24:34.830Z,55.74
2023-02-03T09:27:02.579Z,55.88
2023-02-03T09:29:30.494Z,55.68
2023-02-03T09:31:58.420Z,55.91
2023-02-03T09:34:26.369Z,56.10
2023-02-03T09:36:54.329Z,56.12
2023-02-03T09:39:22.223Z,55.62
2023-02-03T09:42:38.133Z,55.86
2023-02-03T09:45:05.789Z,55.87
2023-02-03T09:47:39.507Z,55.86
2023-02-03T09:50:23.787Z,56.08
2023-02-03T09:52:52.520Z,56.21
2023-02-03T09:55:46.366Z,56.25
2023-02-03T09:58:20.972Z,56.07
2023-02-03T10:01:01.956Z,55.98
2023-02-03T10:03:54.700Z,55.84
2023-02-03T10:06:42.859Z,56.03
2023-02-03T10:09:50.616Z,55.78
2023-02-03T10:12:53.253Z,55.75
2023-02-03T10:16:22.525Z,55.81
2023-02-03T10:18:55.645Z,55.92
2023-02-03T10:21:43.985Z,55.73
2023-02-03T10:24:49.297Z,55.55
2023-02-03T10:27:22.412Z,55.54
2023-02-03T10:30:26.171Z,55.42
2023-02-03T10:33:17.583Z,55.34
2023-02-03T10:36:14.098Z,55.50
2023-02-03T10:38:59.603Z,55.63
2023-02-03T10:41:30.292Z,55.66
2023-02-03T10:44:00.544Z,55.49
2023-02-03T10:46:34.804Z,55.42
2023-02-03T10:49:02.782Z,55.69
2023-02-03T10:51:48.152Z,55.22
2023-02-03T10:54:32.699Z,55.41
2023-02-03T10:57:14.223Z,55.28
2023-02-03T10:59:45.269Z,55.30
2023-02-03T11:02:30.299Z,55.25
2023-02-03T11:05:17.182Z,55.16
2023-02-03T11:07:45.505Z,55.37
2023-02-03T11:10:40.675Z,54.92
2023-02-03T11:13:21.580Z,54.87
2023-02-03T11:15:56.797Z,54.94
2023-02-03T11:18:51.341Z,54.76
2023-02-03T11:21:37.081Z,54.82
2023-02-03T11:24:30.673Z,54.74
2023-02-03T11:27:06.984Z,54.88
2023-02-03T11:29:38.651Z,54.92
2023-02-03T11:32:36.793Z,54.49
2023-02-03T11:35:25.774Z,54.62
2023-02-03T11:37:59.392Z,54.53
2023-02-03T11:40:34.045Z,54.53
2023-02-03T11:43:16.326Z,54.43
2023-02-03T11:45:53.822Z,54.69
2023-02-03T11:48:37.236Z,54.62
2023-02-03T11:51:13.851Z,54.66
2023-02-03T11:54:02.837Z,54.84
2023-02-03T11:56:56.901Z,54.75
2023-02-03T12:00:03.466Z,54.92
2023-02-03T12:02:39.053Z,55.06
2023-02-03T12:06:10.504Z,54.64
2023-02-03T12:09:07.057Z,54.63
2023-02-03T12:12:07.588Z,54.38
2023-02-03T12:14:56.720Z,54.55
2023-02-03T12:17:43.541Z,54.04
2023-02-03T12:20:28.378Z,54.23
2023-02-03T12:23:47.370Z,54.10
2023-02-03T12:26:37.806Z,54.19
2023-02-03T12:29:14.466Z,54.30
2023-02-03T12:32:03.930Z,54.01
2023-02-03T12:34:46.440Z,54.19
2023-02-03T12:37:30.922Z,54.06
2023-02-03T12:40:23.092Z,54.06
2023-02-03T12:43:01.258Z,54.13
2023-02-03T12:45:34.757Z,54.02
2023-02-03T12:48:15.589Z,54.05
2023-02-03T12:50:50.472Z,54.04
2023-02-03T12:53:30.590Z,54.13
2023-02-03T12:56:05.895Z,54.01
2023-02-03T12:58:52.211Z,54.09
2023-02-03T13:01:26.501Z,54.12
2023-02-03T13:04:33.692Z,54.18
2023-02-03T13:07:33.516Z,54.09
2023-02-03T13:10:12.585Z,53.90
2023-02-03T13:12:53.278Z,53.86
2023-02-03T13:15:35.590Z,53.87
2023-02-03T13:18:19.241Z,53.63
2023-02-03T13:20:47.262Z,53.80
2023-02-03T13:23:15.983Z,53.57
2023-02-03T13:26:18.840Z,53.55
2023-02-03T13:29:24.487Z,53.52
2023-02-03T13:32:56.624Z,53.46
2023-02-03T13:35:45.843Z,53.65
2023-02-03T13:39:11.118Z,53.52
2023-02-03T13:42:09.432Z,53.68
2023-02-03T13:44:38.945Z,53.89
2023-02-03T13:47:21.763Z,53.87
2023-02-03T13:49:56.856Z,53.70
2023-02-03T13:53:04.103Z,53.78
2023-02-03T13:55:42.296Z,53.96
2023-02-03T13:58:38.004Z,53.81
2023-02-03T14:01:25.812Z,54.10
2023-02-03T14:03:54.301Z,54.03
2023-02-03T14:06:40.268Z,54.02
2023-02-03T14:09:31.565Z,54.15
2023-02-03T14:12:32.401Z,54.29
2023-02-03T14:15:23.383Z,54.28
2023-02-03T14:17:51.177Z,54.15
2023-02-03T14:20:28.136Z,54.06
2023-02-03T14:23:24.988Z,54.00
2023-02-03T14:25:58.701Z,54.31
2023-02-03T14:28:41.126Z,53.99
2023-02-03T14:31:23.920Z,54.13
2023-02-03T14:34:07.777Z,54.12
2023-02-03T14:36:48.737Z,54.27
2023-02-03T14:39:22.459Z,54.31
2023-02-03T14:42:18.418Z,54.24
2023-02-03T14:45:04.584Z,54.29
2023-02-03T14:48:19.691Z,54.13
2023-02-03T14:51:12.145Z,54.37
2023-02-03T14:54:49.709Z,54.40
2023-02-03T14:57:49.610Z,54.34
2023-02-03T15:00:20.404Z,54.57
2023-02-03T15:03:11.560Z,54.40
2023-02-03T15:05:48.990Z,54.45
2023-02-03T15:08:41.856Z,54.27
2023-02-03T15:11:44.606Z,54.36
2023-02-03T15:14:24.754Z,54.28
2023-02-03T15:17:02.427Z,54.39
2023-02-03T15:19:41.511Z,54.67
2023-02-03T15:22:40.123Z,54.72
2023-02-03T15:25:21.619Z,54.68
2023-02-03T15:27:49.429Z,55.13
2023-02-03T15:30:18.632Z,55.01
2023-02-03T15:33:05.159Z,54.97
2023-02-03T15:35:36.636Z,55.04
2023-02-03T15:38:14.324Z,55.32
2023-02-03T15:40:51.113Z,55.19
2023-02-03T15:43:33.843Z,55.36
2023-02-03T15:46:21.585Z,55.37
2023-02-03T15:49:15.294Z,55.64
2023-02-03T15:51:56.675Z,55.98
2023-02-03T15:54:41.402Z,55.75
2023-02-03T15:57:21.946Z,55.80
2023-02-03T16:00:02.013Z,55.98
2023-02-03T16:02:46.191Z,56.18
2023-02-03T16:05:34.668Z,56.39
2023-02-03T16:08:43.194Z,56.47
2023-02-03T16:11:35.129Z,56.53
2023-02-03T16:14:31.186Z,56.55
2023-02-03T16:17:05.539Z,56.87
2023-02-03T16:19:38.276Z,56.64
2023-02-03T16:22:38.150Z,56.71
2023-02-03T16:25:26.936Z,56.74
2023-02-03T16:28:31.820Z,56.62
2023-02-03T16:31:36.329Z,56.66
2023-02-03T16:34:36.630Z,56.86
2023-02-03T16:37:49.425Z,56.87
2023-02-03T16:40:42.405Z,57.18
2023-02-03T16:43:32.242Z,56.98
2023-02-03T16:46:19.894Z,57.03
2023-02-03T16:49:06.720Z,57.22
2023-02-03T16:51:42.711Z,57.04
2023-02-03T16:54:13.675Z,57.13
2023-02-03T16:56:41.832Z,57.25
2023-02-03T16:59:10.004Z,57.06
2023-02-03T17:01:38.331Z,56.75
2023-02-03T17:04:06.308Z,56.79
2023-02-03T17:06:38.396Z,56.84
2023-02-03T17:09:06.818Z,56.96
2023-02-03T17:11:34.458Z,57.02
2023-02-03T17:14:03.360Z,56.79
2023-02-03T17:16:35.276Z,57.07
2023-02-03T17:19:03.051Z,56.82
2023-02-03T17:21:30.899Z,56.96
2023-02-03T17:23:59.933Z,56.82
2023-02-03T17:26:28.050Z,57.08
2023-02-03T17:28:55.876Z,56.98
2023-02-03T17:31:23.655Z,57.13
2023-02-03T17:33:52.164Z,57.05
2023-02-03T17:36:21.774Z,56.69
2023-02-03T17:55:29.309Z,56.96
2023-02-03T17:57:57.648Z,57.00
2023-02-03T18:00:26.505Z,56.77
2023-02-03T18:02:54.250Z,56.79
2023-02-03T18:05:21.858Z,56.69
2023-02-03T18:07:50.004Z,56.75
2023-02-03T18:10:18.394Z,56.67
2023-02-03T18:12:46.080Z,56.96
2023-02-03T18:15:17.179Z,56.77
2023-02-03T18:17:44.979Z,56.82
2023-02-03T18:20:13.673Z,56.88
2023-02-03T18:22:43.496Z,56.95
2023-02-03T18:25:12.001Z,57.08
2023-02-03T18:27:39.825Z,57.16
2023-02-03T18:30:11.199Z,57.23
2023-02-03T18:32:38.965Z,57.10
2023-02-03T18:35:12.924Z,57.14
2023-02-03T18:37:40.622Z,57.02
2023-02-03T18:40:08.932Z,57.30
2023-02-03T18:42:36.727Z,57.19
2023-02-03T18:45:06.554Z,57.25
2023-02-03T18:47:35.540Z,57.26
2023-02-03T18:50:04.734Z,57.26
2023-02-03T18:52:32.672Z,57.33
2023-02-03T18:55:00.439Z,57.38
2023-02-03T18:57:28.591Z,57.11
2023-02-03T18:59:56.533Z,57.24
2023-02-03T19:02:25.859Z,57.28
2023-02-03T19:04:54.119Z,57.05
2023-02-03T19:07:21.953Z,57.08
2023-02-03T19:09:50.033Z,57.41
2023-02-03T19:12:17.940Z,57.38
2023-02-03T19:14:45.945Z,57.41
2023-02-03T19:17:13.860Z,57.14
2023-02-03T19:19:41.699Z,57.10
2023-02-03T19:22:11.793Z,57.02
2023-02-03T19:24:39.524Z,57.30
2023-02-03T19:27:07.308Z,57.26
2023-02-03T19:29:35.481Z,57.25
2023-02-03T19:32:03.423Z,57.10
2023-02-03T19:34:31.375Z,57.25
2023-02-03T19:36:59.116Z,57.33
2023-02-03T19:39:27.190Z,57.33
2023-02-03T19:41:55.037Z,57.22
2023-02-03T19:44:22.841Z,57.31
2023-02-03T19:46:50.767Z,57.63
2023-02-03T19:49:18.955Z,57.38
2023-02-03T19:51:46.911Z,57.62
2023-02-03T19:54:16.318Z,57.69
2023-02-03T19:56:44.599Z,57.72
2023-02-03T19:59:12.434Z,57.60
2023-02-03T20:01:40.223Z,57.68
2023-02-03T20:04:08.417Z,57.34
2023-02-03T20:06:36.392Z,57.39
2023-02-03T20:09:06.077Z,57.25
2023-02-03T20:11:33.887Z,57.09
2023-02-03T20:14:01.583Z,57.29
2023-02-03T20:16:29.343Z,56.97
2023-02-03T20:18:58.072Z,57.24
2023-02-03T20:21:25.922Z,57.17
2023-02-03T20:23:54.237Z,57.03
2023-02-03T20:26:22.206Z,57.09
2023-02-03T20:28:49.932Z,56.99
2023-02-03T20:31:17.917Z,56.90
2023-02-03T20:33:45.678Z,56.87
2023-02-03T20:36:13.418Z,57.11
2023-02-03T20:38:41.303Z,56.95
2023-02-03T20:41:11.646Z,57.00
2023-02-03T20:43:39.668Z,57.20
2023-02-03T20:46:17.381Z,57.01
2023-02-03T20:48:45.610Z,56.99
2023-02-03T20:51:16.938Z,57.20
2023-02-03T20:53:44.831Z,57.10
2023-02-03T20:56:17.218Z,57.08
2023-02-03T20:58:45.632Z,57.25
2023-02-03T21:01:20.986Z,56.89
2023-02-03T21:04:07.683Z,57.01
2023-02-03T21:06:35.815Z,57.13
2023-02-03T21:09:20.957Z,56.79
2023-02-03T21:11:51.353Z,57.06
2023-02-03T21:14:27.269Z,56.94
2023-02-03T21:16:55.309Z,57.11
2023-02-03T21:19:33.031Z,56.91
2023-02-03T21:22:23.605Z,57.00
2023-02-03T21:24:56.941Z,56.90
2023-02-03T21:27:34.310Z,56.83
2023-02-03T21:30:32.614Z,57.01
2023-02-03T21:33:15.473Z,57.01
2023-02-03T21:35:43.294Z,56.98
2023-02-03T21:38:32.318Z,56.80
2023-02-03T21:41:01.276Z,56.85
2023-02-03T21:43:30.103Z,56.84
2023-02-03T21:45:57.950Z,57.04
2023-02-03T21:48:34.470Z,56.76
2023-02-03T21:51:27.983Z,56.69
2023-02-03T21:53:58.202Z,56.74
2023-02-03T21:56:38.127Z,56.84
2023-02-03T21:59:21.896Z,56.88
2023-02-03T22:01:50.254Z,57.04
2023-02-03T22:04:17.931Z,56.94
2023-02-03T22:06:53.841Z,56.65
2023-02-03T22:09:24.610Z,56.81
2023-02-03T22:11:52.946Z,56.56
2023-02-03T22:14:21.105Z,56.67
2023-02-03T22:16:49.397Z,56.58
2023-02-03T22:19:17.623Z,56.60
2023-02-03T22:21:48.452Z,56.74
2023-02-03T22:24:16.238Z,56.61
2023-02-03T22:26:44.221Z,56.71
2023-02-03T22:29:11.905Z,56.59
2023-02-03T22:31:41.459Z,56.58
2023-02-03T22:34:09.311Z,56.51
2023-02-03T22:36:37.554Z,56.39
2023-02-03T22:39:05.283Z,56.44
2023-02-03T22:41:33.143Z,56.50
2023-02-03T22:44:01.018Z,56.61
2023-02-03T22:46:29.122Z,56.46
2023-02-03T22:48:56.860Z,56.47
2023-02-03T22:51:24.601Z,56.65
2023-02-03T22:53:52.265Z,56.60
2023-02-03T22:56:20.047Z,56.70
2023-02-03T22:58:47.860Z,56.81
2023-02-03T23:01:15.556Z,56.79
2023-02-03T23:03:43.212Z,56.63
2023-02-03T23:06:11.525Z,56.71
2023-02-03T23:08:39.230Z,56.81
2023-02-03T23:11:06.912Z,57.05
2023-02-03T23:13:34.648Z,56.85
2023-02-03T23:16:02.447Z,57.15
2023-02-03T23:18:30.493Z,57.03
2023-02-03T23:20:58.339Z,57.05
2023-02-03T23:23:26.167Z,57.05
2023-02-03T23:25:53.919Z,57.02
2023-02-03T23:28:21.654Z,57.14
2023-02-03T23:30:49.527Z,57.21
2023-02-03T23:33:17.333Z,57.20
2023-02-03T23:35:45.341Z,57.20
2023-02-03T23:38:17.785Z,57.14
2023-02-03T23:40:45.927Z,57.28
2023-02-03T23:43:14.748Z,57.26
2023-02-03T23:45:43.338Z,57.42
2023-02-03T23:48:12.415Z,57.36
2023-02-03T23:50:40.205Z,57.61
2023-02-03T23:53:08.117Z,57.55
2023-02-03T23:55:36.462Z,57.58
2023-02-03T23:58:05.093Z,57.63
